LFRK/CFR METAR and TAF weather

Enter ICAO airport designator
Station Type Date Time Source
LFRK METAR 2022/11/30 18:00 UTC NOAA

LFRK 301800Z AUTO 09005KT CAVOK 04/03 Q1025 NOSIG


Station Type Date Time Source
LFRK Decoded METAR 2022/11/30 18:00 UTC NOAA

Caen, France (LFRK) 49-11N 000-27W 67M
Nov 30, 2022 - 01:00 PM EST / 2022.11.30 1800 UTC
Wind: from the E (090 degrees) at 6 MPH (5 KT):0
Visibility: greater than 7 mile(s):0
Temperature: 39 F (4 C)
Dew Point: 37 F (3 C)
Relative Humidity: 93%
Pressure (altimeter): 30.27 in. Hg (1025 hPa)
ob: LFRK 301800Z AUTO 09005KT CAVOK 04/03 Q1025 NOSIG
cycle: 18

Station Type Date Time Source
LFRK TAF 2020/06/02 06:21 UTC NOAA

TAF LFRK 020500Z 0206/0306 33004KT CAVOK

Example: see airport list